Time,TemperatureF,DewpointF,PressureIn,WindDirection,WindDirectionDegrees,WindSpeedMPH,WindSpeedGustMPH,Humidity,HourlyPrecipIn,Conditions,Clouds,dailyrainin,SoftwareType,DateUTC
2013-06-21 00:04:00,64.1,57.0,30.27,SE,134,0.0,0.0,78,0.00,,,0.00,weatherlink.com 1.10,2013-06-21 04:04:00,
2013-06-21 00:21:00,63.6,57.0,30.27,SE,134,0.0,0.0,80,0.00,,,0.00,weatherlink.com 1.10,2013-06-21 04:21:00,
2013-06-21 00:36:00,63.0,57.0,30.27,SE,134,0.0,0.0,81,0.00,,,0.00,weatherlink.com 1.10,2013-06-21 04:36:00,
2013-06-21 00:51:00,62.2,57.0,30.28,SE,134,0.0,0.0,83,0.00,,,0.00,weatherlink.com 1.10,2013-06-21 04:51:00,
2013-06-21 01:06:00,62.5,57.0,30.29,SE,134,0.0,0.0,83,0.00,,,0.00,weatherlink.com 1.10,2013-06-21 05:06:00,
2013-06-21 01:21:00,62.5,57.0,30.29,SE,134,0.0,0.0,83,0.00,,,0.00,weatherlink.com 1.10,2013-06-21 05:21:00,
2013-06-21 01:36:00,61.9,57.0,30.29,SE,134,0.0,0.0,84,0.00,,,0.00,weatherlink.com 1.10,2013-06-21 05:36:00,
2013-06-21 01:52:00,61.7,57.0,30.29,SE,144,0.0,1.0,85,0.00,,,0.00,weatherlink.com 1.10,2013-06-21 05:52:00,
2013-06-21 02:07:00,61.3,57.0,30.29,SE,144,0.0,0.0,85,0.00,,,0.00,weatherlink.com 1.10,2013-06-21 06:07:00,
2013-06-21 02:22:00,61.5,57.0,30.29,SE,144,0.0,0.0,85,0.00,,,0.00,weatherlink.com 1.10,2013-06-21 06:22:00,
2013-06-21 02:38:00,62.2,56.0,30.28,SE,144,0.0,1.0,80,0.00,,,0.00,weatherlink.com 1.10,2013-06-21 06:38:00,
2013-06-21 02:52:00,62.3,55.0,30.28,SE,144,0.0,2.0,78,0.00,,,0.00,weatherlink.com 1.10,2013-06-21 06:52:00,
2013-06-21 03:07:00,61.6,55.0,30.29,SE,144,0.0,0.0,79,0.00,,,0.00,weatherlink.com 1.10,2013-06-21 07:07:00,
2013-06-21 03:22:00,61.2,55.0,30.28,SSE,147,0.0,1.0,80,0.00,,,0.00,weatherlink.com 1.10,2013-06-21 07:22:00,
2013-06-21 03:39:00,60.2,55.0,30.28,SSE,147,0.0,0.0,82,0.00,,,0.00,weatherlink.com 1.10,2013-06-21 07:39:00,
2013-06-21 03:54:00,60.2,55.0,30.28,SSE,147,0.0,0.0,82,0.00,,,0.00,weatherlink.com 1.10,2013-06-21 07:54:00,
2013-06-21 04:09:00,60.1,54.0,30.28,SSE,147,0.0,1.0,81,0.00,,,0.00,weatherlink.com 1.10,2013-06-21 08:09:00,
2013-06-21 04:24:00,59.4,54.0,30.28,SSE,147,0.0,0.0,83,0.00,,,0.00,weatherlink.com 1.10,2013-06-21 08:24:00,
2013-06-21 04:39:00,58.8,54.0,30.28,SSE,147,0.0,0.0,84,0.00,,,0.00,weatherlink.com 1.10,2013-06-21 08:39:00,
2013-06-21 04:54:00,59.1,54.0,30.28,SSE,147,0.0,0.0,83,0.00,,,0.00,weatherlink.com 1.10,2013-06-21 08:54:00,
2013-06-21 05:09:00,58.7,54.0,30.29,SSE,147,0.0,0.0,84,0.00,,,0.00,weatherlink.com 1.10,2013-06-21 09:09:00,
2013-06-21 05:24:00,58.3,54.0,30.29,SSE,147,0.0,0.0,85,0.00,,,0.00,weatherlink.com 1.10,2013-06-21 09:24:00,
2013-06-21 05:41:00,58.5,54.0,30.29,SSE,147,0.0,0.0,84,0.00,,,0.00,weatherlink.com 1.10,2013-06-21 09:41:00,
2013-06-21 05:56:00,58.4,54.0,30.30,SSE,147,0.0,0.0,84,0.00,,,0.00,weatherlink.com 1.10,2013-06-21 09:56:00,
2013-06-21 06:11:00,58.7,54.0,30.30,SSE,147,0.0,0.0,83,0.00,,,0.00,weatherlink.com 1.10,2013-06-21 10:11:00,
2013-06-21 06:26:00,59.6,54.0,30.30,SSE,147,0.0,0.0,83,0.00,,,0.00,weatherlink.com 1.10,2013-06-21 10:26:00,
2013-06-21 06:41:00,60.9,55.0,30.31,SSE,147,0.0,0.0,81,0.00,,,0.00,weatherlink.com 1.10,2013-06-21 10:41:00,
2013-06-21 06:57:00,62.4,55.0,30.31,SSE,154,0.0,0.0,78,0.00,,,0.00,weatherlink.com 1.10,2013-06-21 10:57:00,
2013-06-21 07:11:00,64.0,56.0,30.31,SSE,154,0.0,0.0,75,0.00,,,0.00,weatherlink.com 1.10,2013-06-21 11:11:00,
2013-06-21 07:28:00,65.0,55.0,30.31,SSE,154,0.0,0.0,71,0.00,,,0.00,weatherlink.com 1.10,2013-06-21 11:28:00,
2013-06-21 07:42:00,66.0,57.0,30.32,SSE,154,0.0,1.0,72,0.00,,,0.00,weatherlink.com 1.10,2013-06-21 11:42:00,
2013-06-21 07:57:00,66.0,55.0,30.32,SSE,152,0.0,2.0,68,0.00,,,0.00,weatherlink.com 1.10,2013-06-21 11:57:00,
2013-06-21 08:12:00,66.6,55.0,30.32,SSE,150,0.0,3.0,67,0.00,,,0.00,weatherlink.com 1.10,2013-06-21 12:12:00,
2013-06-21 08:27:00,68.0,55.0,30.32,SE,146,0.0,1.0,63,0.00,,,0.00,weatherlink.com 1.10,2013-06-21 12:27:00,
2013-06-21 08:44:00,68.8,56.0,30.32,ESE,112,0.0,1.0,64,0.00,,,0.00,weatherlink.com 1.10,2013-06-21 12:44:00,
2013-06-21 08:59:00,69.2,55.0,30.32,SE,128,0.0,3.0,62,0.00,,,0.00,weatherlink.com 1.10,2013-06-21 12:59:00,
2013-06-21 09:14:00,70.3,57.0,30.31,SSE,163,0.0,3.0,63,0.00,,,0.00,weatherlink.com 1.10,2013-06-21 13:14:00,
2013-06-21 09:29:00,71.4,57.0,30.31,SE,124,0.0,3.0,61,0.00,,,0.00,weatherlink.com 1.10,2013-06-21 13:29:00,
2013-06-21 09:44:00,71.8,57.0,30.31,SE,133,1.0,2.0,59,0.00,,,0.00,weatherlink.com 1.10,2013-06-21 13:44:00,
2013-06-21 09:59:00,72.9,58.0,30.31,SSE,153,0.0,1.0,59,0.00,,,0.00,weatherlink.com 1.10,2013-06-21 13:59:00,
2013-06-21 10:14:00,73.4,57.0,30.30,ESE,113,0.0,5.0,57,0.00,,,0.00,weatherlink.com 1.10,2013-06-21 14:14:00,
2013-06-21 10:31:00,74.3,56.0,30.30,South,180,0.0,4.0,53,0.00,,,0.00,weatherlink.com 1.10,2013-06-21 14:31:00,
2013-06-21 10:46:00,74.6,56.0,30.30,SSW,211,1.0,5.0,52,0.00,,,0.00,weatherlink.com 1.10,2013-06-21 14:46:00,
2013-06-21 11:01:00,76.3,56.0,30.31,SSW,205,1.0,4.0,49,0.00,,,0.00,weatherlink.com 1.10,2013-06-21 15:01:00,
2013-06-21 11:16:00,76.3,57.0,30.30,South,169,0.0,7.0,51,0.00,,,0.00,weatherlink.com 1.10,2013-06-21 15:16:00,
2013-06-21 11:31:00,77.1,58.0,30.30,SSE,155,0.0,3.0,52,0.00,,,0.00,weatherlink.com 1.10,2013-06-21 15:31:00,
2013-06-21 11:46:00,77.3,58.0,30.31,SSW,210,0.0,5.0,52,0.00,,,0.00,weatherlink.com 1.10,2013-06-21 15:46:00,
2013-06-21 12:01:00,78.6,59.0,30.32,South,175,0.0,2.0,52,0.00,,,0.00,weatherlink.com 1.10,2013-06-21 16:01:00,
2013-06-21 12:17:00,79.5,59.0,30.31,South,179,2.0,6.0,50,0.00,,,0.00,weatherlink.com 1.10,2013-06-21 16:17:00,
2013-06-21 12:32:00,79.6,60.0,30.31,SE,143,1.0,3.0,52,0.00,,,0.00,weatherlink.com 1.10,2013-06-21 16:32:00,
2013-06-21 12:47:00,79.6,60.0,30.31,SSW,196,1.0,4.0,52,0.00,,,0.00,weatherlink.com 1.10,2013-06-21 16:47:00,
2013-06-21 13:03:00,79.2,60.0,30.31,WSW,242,3.0,5.0,52,0.00,,,0.00,weatherlink.com 1.10,2013-06-21 17:03:00,
2013-06-21 13:17:00,81.1,61.0,30.30,NE,51,1.0,3.0,50,0.00,,,0.00,weatherlink.com 1.10,2013-06-21 17:17:00,
2013-06-21 13:32:00,81.3,61.0,30.30,North,11,0.0,4.0,51,0.00,,,0.00,weatherlink.com 1.10,2013-06-21 17:32:00,
2013-06-21 13:47:00,82.0,60.0,30.29,WSW,240,0.0,3.0,48,0.00,,,0.00,weatherlink.com 1.10,2013-06-21 17:47:00,
2013-06-21 14:04:00,82.1,60.0,30.29,SSW,201,0.0,5.0,47,0.00,,,0.00,weatherlink.com 1.10,2013-06-21 18:04:00,
2013-06-21 14:19:00,82.0,57.0,30.29,WNW,283,0.0,5.0,43,0.00,,,0.00,weatherlink.com 1.10,2013-06-21 18:19:00,
2013-06-21 14:34:00,81.2,57.0,30.29,WSW,243,1.0,6.0,44,0.00,,,0.00,weatherlink.com 1.10,2013-06-21 18:34:00,
2013-06-21 14:49:00,83.2,58.0,30.29,SW,232,0.0,5.0,43,0.00,,,0.00,weatherlink.com 1.10,2013-06-21 18:49:00,
2013-06-21 15:04:00,83.2,58.0,30.29,South,175,0.0,4.0,42,0.00,,,0.00,weatherlink.com 1.10,2013-06-21 19:04:00,
2013-06-21 15:19:00,84.1,58.0,30.29,South,173,0.0,4.0,41,0.00,,,0.00,weatherlink.com 1.10,2013-06-21 19:19:00,
2013-06-21 15:34:00,84.5,58.0,30.28,East,100,0.0,4.0,41,0.00,,,0.00,weatherlink.com 1.10,2013-06-21 19:34:00,
2013-06-21 15:50:00,83.5,59.0,30.27,South,188,1.0,5.0,43,0.00,,,0.00,weatherlink.com 1.10,2013-06-21 19:50:00,
2013-06-21 16:06:00,83.4,59.0,30.26,SSW,193,3.0,5.0,44,0.00,,,0.00,weatherlink.com 1.10,2013-06-21 20:06:00,
2013-06-21 16:21:00,82.3,59.0,30.26,SW,221,1.0,8.0,45,0.00,,,0.00,weatherlink.com 1.10,2013-06-21 20:21:00,
2013-06-21 16:36:00,82.6,58.0,30.27,West,277,1.0,3.0,43,0.00,,,0.00,weatherlink.com 1.10,2013-06-21 20:36:00,
2013-06-21 16:51:00,82.9,57.0,30.26,SSW,204,0.0,5.0,42,0.00,,,0.00,weatherlink.com 1.10,2013-06-21 20:51:00,
2013-06-21 17:06:00,82.6,57.0,30.26,SSW,208,0.0,4.0,41,0.00,,,0.00,weatherlink.com 1.10,2013-06-21 21:06:00,
2013-06-21 17:21:00,82.3,57.0,30.26,SSW,210,0.0,2.0,42,0.00,,,0.00,weatherlink.com 1.10,2013-06-21 21:21:00,
2013-06-21 17:37:00,81.9,57.0,30.25,South,188,1.0,5.0,43,0.00,,,0.00,weatherlink.com 1.10,2013-06-21 21:37:00,
2013-06-21 17:52:00,82.2,57.0,30.25,South,180,2.0,7.0,42,0.00,,,0.00,weatherlink.com 1.10,2013-06-21 21:52:00,
2013-06-21 18:08:00,81.7,58.0,30.25,SSE,161,0.0,2.0,44,0.00,,,0.00,weatherlink.com 1.10,2013-06-21 22:08:00,
2013-06-21 18:22:00,82.1,57.0,30.26,South,178,0.0,4.0,42,0.00,,,0.00,weatherlink.com 1.10,2013-06-21 22:22:00,
2013-06-21 18:39:00,80.8,57.0,30.26,SSW,199,1.0,3.0,45,0.00,,,0.00,weatherlink.com 1.10,2013-06-21 22:39:00,
2013-06-21 18:52:00,80.5,58.0,30.25,WNW,282,1.0,2.0,46,0.00,,,0.00,weatherlink.com 1.10,2013-06-21 22:52:00,
2013-06-21 19:07:00,80.3,58.0,30.25,SW,228,0.0,3.0,47,0.00,,,0.00,weatherlink.com 1.10,2013-06-21 23:07:00,
2013-06-21 19:22:00,79.4,58.0,30.26,WSW,242,0.0,1.0,48,0.00,,,0.00,weatherlink.com 1.10,2013-06-21 23:22:00,
2013-06-21 19:38:00,78.2,59.0,30.25,WSW,250,0.0,3.0,51,0.00,,,0.00,weatherlink.com 1.10,2013-06-21 23:38:00,
2013-06-21 19:54:00,76.0,58.0,30.25,SSW,209,0.0,1.0,54,0.00,,,0.00,weatherlink.com 1.10,2013-06-21 23:54:00,
2013-06-21 20:09:00,74.8,58.0,30.25,SSW,200,0.0,2.0,57,0.00,,,0.00,weatherlink.com 1.10,2013-06-22 00:09:00,
2013-06-21 20:24:00,73.9,58.0,30.25,SSW,192,0.0,1.0,57,0.00,,,0.00,weatherlink.com 1.10,2013-06-22 00:24:00,
2013-06-21 20:39:00,72.9,58.0,30.25,South,170,0.0,2.0,60,0.00,,,0.00,weatherlink.com 1.10,2013-06-22 00:39:00,
2013-06-21 20:54:00,72.2,57.0,30.25,SSW,198,0.0,1.0,59,0.00,,,0.00,weatherlink.com 1.10,2013-06-22 00:54:00,
2013-06-21 21:09:00,71.7,56.0,30.25,SE,143,0.0,1.0,58,0.00,,,0.00,weatherlink.com 1.10,2013-06-22 01:09:00,
2013-06-21 21:24:00,71.1,55.0,30.25,SE,136,0.0,1.0,58,0.00,,,0.00,weatherlink.com 1.10,2013-06-22 01:24:00,
2013-06-21 21:41:00,70.2,56.0,30.26,SE,129,0.0,0.0,60,0.00,,,0.00,weatherlink.com 1.10,2013-06-22 01:41:00,
2013-06-21 21:56:00,69.4,55.0,30.26,SE,127,0.0,0.0,61,0.00,,,0.00,weatherlink.com 1.10,2013-06-22 01:56:00,
2013-06-21 22:11:00,68.2,56.0,30.26,SE,127,0.0,0.0,65,0.00,,,0.00,weatherlink.com 1.10,2013-06-22 02:11:00,
2013-06-21 22:26:00,67.8,55.0,30.26,SE,127,0.0,0.0,64,0.00,,,0.00,weatherlink.com 1.10,2013-06-22 02:26:00,
2013-06-21 22:41:00,68.3,54.0,30.26,SE,127,0.0,1.0,60,0.00,,,0.00,weatherlink.com 1.10,2013-06-22 02:41:00,
2013-06-21 22:56:00,68.0,52.0,30.26,ESE,123,0.0,1.0,58,0.00,,,0.00,weatherlink.com 1.10,2013-06-22 02:56:00,
2013-06-21 23:11:00,67.4,53.0,30.26,ESE,123,0.0,0.0,61,0.00,,,0.00,weatherlink.com 1.10,2013-06-22 03:11:00,
2013-06-21 23:27:00,66.8,54.0,30.27,ESE,123,0.0,1.0,63,0.00,,,0.00,weatherlink.com 1.10,2013-06-22 03:27:00,
2013-06-21 23:42:00,66.4,54.0,30.27,ESE,123,0.0,0.0,65,0.00,,,0.00,weatherlink.com 1.10,2013-06-22 03:42:00,
2013-06-21 23:57:00,66.0,55.0,30.27,ESE,123,0.0,1.0,67,0.00,,,0.00,weatherlink.com 1.10,2013-06-22 03:57:00,